Time;durP1;ratioP1;P1;durP2;ratioP2;P2;SDS_P1;SDS_P2;PMS_P1;PMS_P2;Temp;Humidity;BMP_temperature;BMP_pressure;BME280_temperature;BME280_humidity;BME280_pressure;Samples;Min_cycle;Max_cycle;Signal;HPM_P1;HPM_P2
2022/01/02 12:05:18;;;;;;;10.10;3.85;;;12.40;99.90;;;;;;10554944;27;20136;-64
2022/01/02 12:10:20;;;;;;;7.43;3.38;;;12.50;99.90;;;;;;10536432;28;20078;-64
2022/01/02 12:15:21;;;;;;;9.57;3.63;;;12.50;99.90;;;;;;10536887;28;20040;-62
2022/01/02 12:20:22;;;;;;;7.07;3.58;;;12.50;99.90;;;;;;10534054;28;20040;-63
2022/01/02 12:25:23;;;;;;;9.82;3.33;;;12.50;99.90;;;;;;10544534;28;20126;-69
2022/01/02 12:30:24;;;;;;;5.15;2.97;;;12.60;99.90;;;;;;10558482;28;20028;-65
2022/01/02 12:35:25;;;;;;;5.22;3.20;;;12.60;99.90;;;;;;10560603;28;20073;-61
2022/01/02 12:40:26;;;;;;;8.95;2.97;;;12.60;99.90;;;;;;10572849;28;20069;-64
2022/01/02 12:45:27;;;;;;;8.05;3.30;;;12.60;99.90;;;;;;10540385;28;20081;-65
2022/01/02 12:50:32;;;;;;;7.93;3.08;;;12.70;99.90;;;;;;10554706;28;20024;-65
2022/01/02 12:55:32;;;;;;;5.85;2.53;;;12.70;99.90;;;;;;10547243;28;20088;-64
2022/01/02 13:00:34;;;;;;;6.75;2.95;;;12.70;99.90;;;;;;10551161;28;20603;-68
2022/01/02 13:05:49;;;;;;;5.15;2.60;;;12.70;99.90;;;;;;10514927;28;20037;-61
2022/01/02 13:10:50;;;;;;;8.68;2.90;;;12.70;99.90;;;;;;10513372;28;20491;-61
2022/01/02 13:15:51;;;;;;;7.75;2.40;;;12.60;99.90;;;;;;10489883;28;20023;-67
2022/01/02 13:20:52;;;;;;;7.82;2.47;;;12.60;99.90;;;;;;10495508;28;20082;-65
2022/01/02 13:25:52;;;;;;;8.00;2.72;;;12.60;99.90;;;;;;10493228;28;20475;-65
2022/01/02 13:30:56;;;;;;;6.65;2.40;;;12.60;99.90;;;;;;10478082;28;20074;-61
2022/01/02 13:36:13;;;;;;;7.95;2.95;;;12.60;99.90;;;;;;10484613;28;20033;-66
2022/01/02 13:41:14;;;;;;;9.02;2.50;;;12.60;99.90;;;;;;10489184;28;20563;-61
2022/01/02 13:46:14;;;;;;;7.53;2.30;;;12.60;99.90;;;;;;10482562;28;20020;-62
2022/01/02 13:51:20;;;;;;;7.38;2.55;;;12.50;99.90;;;;;;10489828;28;20063;-62
2022/01/02 13:56:21;;;;;;;7.18;2.30;;;12.50;99.90;;;;;;10479482;28;20020;-61
2022/01/02 14:01:32;;;;;;;8.50;2.58;;;12.50;99.90;;;;;;10486014;28;20044;-62
2022/01/02 14:06:39;;;;;;;9.60;2.50;;;12.50;99.90;;;;;;10501164;28;20112;-66
2022/01/02 14:11:41;;;;;;;6.15;2.70;;;12.50;99.90;;;;;;10497257;28;20025;-63
2022/01/02 14:17:03;;;;;;;5.63;2.45;;;12.50;99.90;;;;;;10493956;28;20050;-61
2022/01/02 14:22:04;;;;;;;6.63;2.40;;;12.50;99.90;;;;;;10505322;28;20081;-65
2022/01/02 14:27:07;;;;;;;6.28;2.08;;;12.50;99.90;;;;;;10497510;28;20069;-68
2022/01/02 14:32:08;;;;;;;8.10;2.40;;;12.50;99.90;;;;;;10516915;28;20624;-65
2022/01/02 14:37:12;;;;;;;7.43;2.20;;;12.50;99.90;;;;;;10516542;28;20032;-69
2022/01/02 14:42:14;;;;;;;8.32;2.13;;;12.50;99.90;;;;;;10538830;28;20028;-63
2022/01/02 14:47:15;;;;;;;8.60;2.10;;;12.40;99.90;;;;;;10530283;28;20028;-62
2022/01/02 14:52:16;;;;;;;5.45;1.95;;;12.50;99.90;;;;;;10530011;28;20028;-62
2022/01/02 14:57:17;;;;;;;7.07;1.67;;;12.40;99.90;;;;;;10518052;28;20102;-64
2022/01/02 15:02:17;;;;;;;6.93;2.10;;;12.40;99.90;;;;;;10527700;28;20105;-61
2022/01/02 15:07:18;;;;;;;7.07;2.28;;;12.40;99.90;;;;;;10526454;28;20031;-62
2022/01/02 15:12:19;;;;;;;5.75;1.85;;;12.40;99.90;;;;;;10530183;28;20120;-61
2022/01/02 15:17:20;;;;;;;8.10;2.08;;;12.30;99.90;;;;;;10526385;28;20497;-60
2022/01/02 15:22:20;;;;;;;5.15;1.88;;;12.30;99.90;;;;;;10537589;28;20086;-61
2022/01/02 15:27:21;;;;;;;6.85;2.45;;;12.30;99.90;;;;;;10526904;28;20028;-65
2022/01/02 15:32:22;;;;;;;4.20;1.52;;;12.30;99.90;;;;;;10515787;28;20063;-62
2022/01/02 15:37:22;;;;;;;3.38;1.80;;;12.30;99.90;;;;;;10528080;28;20410;-65
2022/01/02 15:42:23;;;;;;;5.88;1.80;;;12.30;99.90;;;;;;10537130;28;20036;-66
2022/01/02 15:47:24;;;;;;;11.20;2.10;;;12.30;99.90;;;;;;10506892;28;20071;-67
2022/01/02 15:52:25;;;;;;;4.82;2.03;;;12.30;99.90;;;;;;10523046;28;20487;-64
2022/01/02 15:57:25;;;;;;;4.40;1.50;;;12.30;99.90;;;;;;10522730;28;20074;-60
2022/01/02 16:02:26;;;;;;;5.60;2.00;;;12.20;99.90;;;;;;10513215;28;20155;-68
2022/01/02 16:07:27;;;;;;;9.23;1.80;;;12.20;99.90;;;;;;10521739;28;20451;-68
2022/01/02 16:12:27;;;;;;;5.68;1.92;;;12.20;99.90;;;;;;10528857;28;20118;-68
2022/01/02 16:17:28;;;;;;;5.22;1.45;;;12.20;99.90;;;;;;10525757;28;20545;-61
2022/01/02 16:22:29;;;;;;;5.78;1.70;;;12.20;99.90;;;;;;10536337;28;20059;-66
2022/01/02 16:27:29;;;;;;;4.68;1.23;;;12.10;99.90;;;;;;10524260;28;20031;-70
2022/01/02 16:32:30;;;;;;;4.07;1.33;;;12.10;99.90;;;;;;10526606;28;20504;-66
2022/01/02 16:37:37;;;;;;;3.72;1.10;;;12.10;99.90;;;;;;10527023;28;20082;-62
2022/01/02 16:42:37;;;;;;;4.38;1.20;;;12.10;99.90;;;;;;10535685;28;20054;-72
2022/01/02 16:47:38;;;;;;;4.68;1.80;;;11.80;99.90;;;;;;10528812;28;20031;-65
2022/01/02 16:52:39;;;;;;;6.15;1.70;;;12.10;99.90;;;;;;10534865;28;20055;-64
2022/01/02 16:57:39;;;;;;;3.10;1.05;;;12.00;99.90;;;;;;10520616;28;20545;-65
2022/01/02 17:02:45;;;;;;;3.03;1.08;;;12.10;99.90;;;;;;10521397;28;20506;-65
2022/01/02 17:07:46;;;;;;;3.63;1.05;;;12.00;99.90;;;;;;10533607;28;20529;-66
2022/01/02 17:12:47;;;;;;;10.02;1.45;;;12.00;99.90;;;;;;10534241;28;20032;-64
2022/01/02 17:17:48;;;;;;;3.55;1.27;;;12.00;99.90;;;;;;10530606;28;20374;-63
2022/01/02 17:22:50;;;;;;;2.97;1.13;;;12.00;99.90;;;;;;10542574;28;20048;-63
2022/01/02 17:27:50;;;;;;;5.60;1.30;;;12.00;99.90;;;;;;10527169;28;20169;-65
2022/01/02 17:32:51;;;;;;;2.25;1.08;;;12.00;99.90;;;;;;10512377;28;20118;-63
2022/01/02 17:37:52;;;;;;;5.95;1.30;;;12.00;99.90;;;;;;10520633;28;20494;-62
2022/01/02 17:42:53;;;;;;;2.10;1.20;;;11.90;99.90;;;;;;10522906;28;20040;-63
2022/01/02 17:47:54;;;;;;;5.43;1.58;;;12.00;99.90;;;;;;10531143;28;20024;-66
2022/01/02 17:52:55;;;;;;;8.13;1.77;;;11.90;99.90;;;;;;10532324;28;20431;-61
2022/01/02 17:57:55;;;;;;;7.20;1.42;;;11.90;99.90;;;;;;10510617;28;20016;-60
2022/01/02 18:02:56;;;;;;;4.10;1.10;;;11.90;99.90;;;;;;10507738;28;20120;-61
2022/01/02 18:07:57;;;;;;;3.50;0.98;;;12.00;99.90;;;;;;10527041;28;20035;-61
2022/01/02 18:12:59;;;;;;;3.13;1.15;;;11.90;99.90;;;;;;10530614;28;20025;-63
2022/01/02 18:18:01;;;;;;;4.15;1.10;;;11.90;99.90;;;;;;10527433;28;20032;-63
2022/01/02 18:23:05;;;;;;;3.42;1.20;;;11.80;99.90;;;;;;10538879;28;20044;-65
2022/01/02 18:28:07;;;;;;;5.15;1.38;;;11.90;99.90;;;;;;10517488;28;20036;-65
2022/01/02 18:33:08;;;;;;;7.03;1.40;;;11.90;99.90;;;;;;10529203;28;20318;-62
2022/01/02 18:38:10;;;;;;;5.55;1.52;;;11.90;99.90;;;;;;10527779;28;20028;-61
2022/01/02 18:43:11;;;;;;;5.10;1.13;;;11.80;99.90;;;;;;10539153;28;20040;-61
2022/01/02 18:48:11;;;;;;;5.47;1.50;;;11.90;99.90;;;;;;10530261;28;20032;-61
2022/01/02 18:53:12;;;;;;;4.60;1.55;;;11.80;99.90;;;;;;10530331;28;20111;-61
2022/01/02 18:58:13;;;;;;;4.85;1.35;;;11.80;99.90;;;;;;10525583;28;20197;-61
2022/01/02 19:03:14;;;;;;;5.50;1.58;;;11.90;99.90;;;;;;10512136;28;20048;-62
2022/01/02 19:08:15;;;;;;;7.00;1.20;;;11.90;99.90;;;;;;10500544;28;20032;-60
2022/01/02 19:13:16;;;;;;;6.72;1.45;;;11.90;99.90;;;;;;10528284;28;20032;-65
2022/01/02 19:18:17;;;;;;;8.02;1.60;;;12.00;99.90;;;;;;10519767;28;20514;-61
2022/01/02 19:23:18;;;;;;;6.80;1.63;;;11.90;99.90;;;;;;10527089;28;20032;-61
2022/01/02 19:28:18;;;;;;;5.38;1.20;;;11.90;99.90;;;;;;10520483;28;20028;-61
2022/01/02 19:33:19;;;;;;;7.13;1.92;;;11.90;99.90;;;;;;10511086;28;20021;-62
2022/01/02 19:38:20;;;;;;;6.78;1.58;;;11.90;99.90;;;;;;10516720;28;20028;-62
2022/01/02 19:43:21;;;;;;;4.07;1.52;;;11.90;99.90;;;;;;10504174;28;20512;-62
2022/01/02 19:48:22;;;;;;;5.75;1.60;;;11.90;99.90;;;;;;10511072;28;20028;-63
2022/01/02 19:53:22;;;;;;;7.25;1.73;;;11.90;99.90;;;;;;10511737;28;20119;-64
2022/01/02 19:58:23;;;;;;;5.43;1.20;;;11.80;99.90;;;;;;10512221;28;20024;-60
2022/01/02 20:03:24;;;;;;;2.78;1.20;;;11.80;99.90;;;;;;10514762;28;20182;-61
2022/01/02 20:08:24;;;;;;;5.15;1.33;;;11.80;99.90;;;;;;10504348;28;20090;-65
2022/01/02 20:13:30;;;;;;;4.53;1.60;;;11.80;99.90;;;;;;10508266;28;20032;-65
2022/01/02 20:18:33;;;;;;;7.47;1.38;;;11.80;99.90;;;;;;10495211;28;20612;-61
2022/01/02 20:23:34;;;;;;;6.10;1.50;;;11.80;99.90;;;;;;10527930;28;20063;-64
2022/01/02 20:28:36;;;;;;;2.88;1.20;;;11.80;99.90;;;;;;10512056;28;20564;-61
2022/01/02 20:33:36;;;;;;;4.30;1.10;;;11.80;99.90;;;;;;10516099;28;20883;-64
2022/01/02 20:38:38;;;;;;;3.20;1.20;;;11.70;99.90;;;;;;10518543;28;20024;-61
2022/01/02 20:43:39;;;;;;;10.02;2.00;;;11.70;99.90;;;;;;10522543;28;20036;-63
2022/01/02 20:48:39;;;;;;;5.78;1.20;;;11.70;99.90;;;;;;10508723;28;20373;-63
2022/01/02 20:53:40;;;;;;;3.47;1.10;;;11.70;99.90;;;;;;10520134;28;20028;-68
2022/01/02 20:58:41;;;;;;;6.75;1.80;;;12.40;99.90;;;;;;10518499;28;20020;-65
2022/01/02 21:03:43;;;;;;;2.65;0.82;;;11.70;99.90;;;;;;10527986;28;20032;-61
2022/01/02 21:08:45;;;;;;;3.00;1.13;;;11.70;99.90;;;;;;10519125;28;20029;-71
2022/01/02 21:13:47;;;;;;;1.55;0.82;;;11.60;99.90;;;;;;10528779;28;20035;-70
2022/01/02 21:18:48;;;;;;;5.68;2.10;;;11.60;99.90;;;;;;10524670;28;20077;-59
2022/01/02 21:23:49;;;;;;;4.38;1.15;;;11.60;99.90;;;;;;10513009;28;20379;-58
2022/01/02 21:28:51;;;;;;;2.05;0.90;;;11.60;99.90;;;;;;10505014;28;20155;-63
2022/01/02 21:33:52;;;;;;;2.25;0.85;;;11.60;99.90;;;;;;10492908;28;20063;-60
2022/01/02 21:38:53;;;;;;;3.33;1.00;;;11.60;99.90;;;;;;10511121;28;20419;-72
2022/01/02 21:43:53;;;;;;;3.30;0.90;;;11.60;99.90;;;;;;10512981;28;20028;-68
2022/01/02 21:48:54;;;;;;;2.95;0.90;;;11.60;99.90;;;;;;10524748;28;20016;-70
2022/01/02 21:53:55;;;;;;;3.30;0.95;;;11.60;99.90;;;;;;10526327;28;20501;-69
2022/01/02 21:58:56;;;;;;;3.40;1.10;;;11.60;99.90;;;;;;10526197;28;20081;-64
2022/01/02 22:04:00;;;;;;;1.98;0.80;;;11.60;99.90;;;;;;10520974;28;20063;-63
2022/01/02 22:09:02;;;;;;;4.20;1.17;;;11.60;99.90;;;;;;10516958;28;20082;-65
2022/01/02 22:14:03;;;;;;;3.63;1.30;;;11.60;99.90;;;;;;10515757;28;20042;-63
2022/01/02 22:19:04;;;;;;;4.60;1.00;;;11.60;99.90;;;;;;10514705;28;20024;-62
2022/01/02 22:24:07;;;;;;;3.28;0.77;;;11.60;99.90;;;;;;10519112;28;20477;-65
2022/01/02 22:29:09;;;;;;;3.08;1.00;;;11.60;99.90;;;;;;10516829;28;20085;-61
2022/01/02 22:34:10;;;;;;;3.88;0.90;;;11.60;99.90;;;;;;10515884;28;20024;-65
2022/01/02 22:39:14;;;;;;;5.38;1.00;;;11.60;99.90;;;;;;10514970;28;20024;-60
2022/01/02 22:44:14;;;;;;;2.17;0.90;;;11.60;99.90;;;;;;10528383;28;20118;-66
2022/01/02 22:49:16;;;;;;;1.30;0.65;;;11.50;99.90;;;;;;10527430;28;20038;-63
2022/01/02 22:54:16;;;;;;;3.42;0.65;;;11.50;99.90;;;;;;10516767;28;20163;-61
2022/01/02 22:59:17;;;;;;;1.58;0.60;;;11.50;99.90;;;;;;10513323;28;20024;-61
2022/01/02 23:04:18;;;;;;;2.05;0.50;;;11.50;99.90;;;;;;10511038;28;20157;-65
2022/01/02 23:09:19;;;;;;;0.60;0.47;;;11.40;99.90;;;;;;10525129;28;20016;-61
2022/01/02 23:14:20;;;;;;;3.13;0.70;;;11.50;99.90;;;;;;10541411;28;20149;-61
2022/01/02 23:19:22;;;;;;;1.98;0.40;;;11.50;99.90;;;;;;10531950;28;20083;-62
2022/01/02 23:24:23;;;;;;;1.23;0.50;;;11.50;99.90;;;;;;10532820;28;20474;-62
2022/01/02 23:29:27;;;;;;;2.72;0.47;;;11.50;99.90;;;;;;10521848;28;20099;-61
2022/01/02 23:34:28;;;;;;;1.60;0.60;;;11.40;99.90;;;;;;10522567;28;20165;-64
2022/01/02 23:39:29;;;;;;;1.20;0.40;;;11.40;99.90;;;;;;10522195;28;20028;-64
2022/01/02 23:44:30;;;;;;;2.97;0.60;;;11.40;99.90;;;;;;10528505;28;20044;-65
2022/01/02 23:49:43;;;;;;;0.68;0.40;;;11.40;99.90;;;;;;10528078;28;20039;-64
2022/01/02 23:54:47;;;;;;;1.60;0.60;;;11.40;99.90;;;;;;10527715;28;20048;-63
2022/01/02 23:59:53;;;;;;;3.13;0.80;;;11.40;99.90;;;;;;10528285;28;20023;-65
